PAL2357 RPVM-RPMR
Flight info
| Callsign | PAL2357 |
|---|---|
| Flight time | 0h 57m |
| Altitude | 33000 |
| Route | ALDI4P ALDIN W21 COT W19 MELBY MELBY3P |
| Aircraft | A321/M-SDE3FGHIRWY/LB1 |
Departure
| Time | 2026-04-29 13:30 |
|---|---|
| Airport | Mactan Cebu International Airport (RPVM) |
Arrival
| Time | 2026-04-29 14:28 |
|---|---|
| Airport | General Santos International Airport (RPMR) |
| Time | Latitude | Longitude | Altitude | Speed | Heading |
|---|---|---|---|---|---|
| 2026-04-29 13:15 | 10.31455 | 123.97889 | 36 ft | 0 kts | 315° |
| 2026-04-29 13:19 | 10.31452 | 123.97891 | 36 ft | 2 kts | 315° |
| 2026-04-29 13:19 | 10.31442 | 123.97903 | 36 ft | 2 kts | 313° |
| 2026-04-29 13:20 | 10.31431 | 123.97913 | 36 ft | 2 kts | 314° |
| 2026-04-29 13:20 | 10.31424 | 123.97921 | 36 ft | 0 kts | 313° |
| 2026-04-29 13:20 | 10.31416 | 123.97932 | 36 ft | 2 kts | 284° |
| 2026-04-29 13:20 | 10.31416 | 123.97948 | 36 ft | 2 kts | 252° |
| 2026-04-29 13:21 | 10.31421 | 123.97957 | 36 ft | 0 kts | 230° |
| 2026-04-29 13:21 | 10.31425 | 123.97961 | 36 ft | 1 kts | 224° |
| 2026-04-29 13:21 | 10.31427 | 123.97962 | 36 ft | 0 kts | 225° |
| 2026-04-29 13:24 | 10.31426 | 123.97961 | 36 ft | 1 kts | 225° |
| 2026-04-29 13:24 | 10.31406 | 123.97942 | 36 ft | 6 kts | 226° |
| 2026-04-29 13:24 | 10.31362 | 123.97907 | 36 ft | 8 kts | 205° |
| 2026-04-29 13:25 | 10.31301 | 123.97923 | 36 ft | 11 kts | 137° |
| 2026-04-29 13:25 | 10.31255 | 123.97967 | 36 ft | 11 kts | 144° |
| 2026-04-29 13:25 | 10.31189 | 123.97963 | 36 ft | 11 kts | 219° |
| 2026-04-29 13:26 | 10.31133 | 123.97911 | 36 ft | 12 kts | 227° |
| 2026-04-29 13:26 | 10.31056 | 123.97833 | 36 ft | 19 kts | 225° |
| 2026-04-29 13:26 | 10.30939 | 123.97716 | 36 ft | 26 kts | 225° |
| 2026-04-29 13:26 | 10.30795 | 123.97568 | 36 ft | 31 kts | 225° |
| 2026-04-29 13:27 | 10.30633 | 123.97407 | 36 ft | 31 kts | 224° |
| 2026-04-29 13:27 | 10.30485 | 123.97259 | 36 ft | 29 kts | 224° |
| 2026-04-29 13:27 | 10.30369 | 123.97144 | 36 ft | 27 kts | 224° |
| 2026-04-29 13:27 | 10.30227 | 123.97002 | 36 ft | 25 kts | 224° |
| 2026-04-29 13:28 | 10.30102 | 123.96877 | 36 ft | 24 kts | 224° |
| 2026-04-29 13:28 | 10.29986 | 123.96762 | 36 ft | 22 kts | 224° |
| 2026-04-29 13:28 | 10.29866 | 123.96725 | 36 ft | 17 kts | 140° |
| 2026-04-29 13:28 | 10.29780 | 123.96811 | 36 ft | 17 kts | 134° |
| 2026-04-29 13:29 | 10.29753 | 123.96839 | 36 ft | 17 kts | 134° |
| 2026-04-29 13:29 | 10.29719 | 123.96905 | 36 ft | 6 kts | 59° |
| 2026-04-29 13:30 | 10.31524 | 123.98691 | 1171 ft | 164 kts | 44° |
| 2026-04-29 13:30 | 10.32309 | 123.99487 | 2159 ft | 161 kts | 46° |
| 2026-04-29 13:30 | 10.32859 | 124.00474 | 2609 ft | 172 kts | 80° |
| 2026-04-29 13:31 | 10.32634 | 124.01696 | 2917 ft | 194 kts | 114° |
| 2026-04-29 13:31 | 10.31888 | 124.02931 | 3279 ft | 211 kts | 121° |
| 2026-04-29 13:31 | 10.31023 | 124.04243 | 3638 ft | 229 kts | 121° |
| 2026-04-29 13:31 | 10.30107 | 124.05654 | 3924 ft | 251 kts | 121° |
| 2026-04-29 13:32 | 10.29125 | 124.07207 | 4412 ft | 265 kts | 120° |
| 2026-04-29 13:32 | 10.28126 | 124.08818 | 5134 ft | 269 kts | 120° |
| 2026-04-29 13:32 | 10.27117 | 124.10459 | 5864 ft | 272 kts | 120° |
| 2026-04-29 13:32 | 10.26108 | 124.12108 | 6456 ft | 281 kts | 120° |
| 2026-04-29 13:33 | 10.25046 | 124.13850 | 7011 ft | 293 kts | 121° |
| 2026-04-29 13:33 | 10.23951 | 124.15644 | 7755 ft | 296 kts | 121° |
| 2026-04-29 13:33 | 10.22861 | 124.17429 | 8491 ft | 300 kts | 121° |
| 2026-04-29 13:33 | 10.21742 | 124.19262 | 9212 ft | 303 kts | 121° |
| 2026-04-29 13:34 | 10.20510 | 124.21028 | 9897 ft | 307 kts | 135° |
| 2026-04-29 13:34 | 10.18719 | 124.22242 | 10494 ft | 312 kts | 161° |
| 2026-04-29 13:34 | 10.16550 | 124.22588 | 10804 ft | 323 kts | 187° |
| 2026-04-29 13:34 | 10.14288 | 124.22193 | 11126 ft | 337 kts | 194° |
| 2026-04-29 13:35 | 10.11947 | 124.21669 | 11574 ft | 348 kts | 194° |
| 2026-04-29 13:35 | 10.09550 | 124.21137 | 12266 ft | 350 kts | 194° |
| 2026-04-29 13:35 | 10.07142 | 124.20622 | 12969 ft | 352 kts | 193° |
| 2026-04-29 13:35 | 10.04725 | 124.20120 | 13627 ft | 355 kts | 193° |
| 2026-04-29 13:36 | 10.02273 | 124.19620 | 14283 ft | 357 kts | 193° |
| 2026-04-29 13:36 | 9.99837 | 124.19128 | 14942 ft | 359 kts | 193° |
| 2026-04-29 13:36 | 9.97362 | 124.18630 | 15576 ft | 362 kts | 193° |
| 2026-04-29 13:36 | 9.94860 | 124.18130 | 16195 ft | 364 kts | 193° |
| 2026-04-29 13:37 | 9.92417 | 124.17641 | 16787 ft | 367 kts | 192° |
| 2026-04-29 13:37 | 9.89825 | 124.17123 | 17399 ft | 370 kts | 192° |
| 2026-04-29 13:37 | 9.87281 | 124.16613 | 17984 ft | 373 kts | 192° |
| 2026-04-29 13:37 | 9.84706 | 124.16097 | 18559 ft | 376 kts | 192° |
| 2026-04-29 13:38 | 9.82150 | 124.15405 | 19112 ft | 377 kts | 201° |
| 2026-04-29 13:38 | 9.79767 | 124.14240 | 19659 ft | 379 kts | 212° |
| 2026-04-29 13:38 | 9.77620 | 124.12660 | 20191 ft | 381 kts | 219° |
| 2026-04-29 13:39 | 9.66712 | 124.03433 | 22494 ft | 402 kts | 220° |
| 2026-04-29 13:40 | 9.64633 | 124.01685 | 22931 ft | 404 kts | 220° |
| 2026-04-29 13:40 | 9.62477 | 123.99873 | 23367 ft | 407 kts | 220° |
| 2026-04-29 13:40 | 9.60245 | 123.98000 | 23800 ft | 409 kts | 220° |
| 2026-04-29 13:40 | 9.58092 | 123.96194 | 24205 ft | 412 kts | 220° |
| 2026-04-29 13:41 | 9.55924 | 123.94376 | 24595 ft | 414 kts | 219° |
| 2026-04-29 13:41 | 9.53653 | 123.92471 | 24991 ft | 417 kts | 219° |
| 2026-04-29 13:41 | 9.51399 | 123.90582 | 25381 ft | 419 kts | 219° |
| 2026-04-29 13:41 | 9.49110 | 123.88663 | 25759 ft | 422 kts | 219° |
| 2026-04-29 13:42 | 9.46799 | 123.86728 | 26122 ft | 424 kts | 219° |
| 2026-04-29 13:42 | 9.44477 | 123.84783 | 26481 ft | 427 kts | 219° |
| 2026-04-29 13:42 | 9.42151 | 123.82835 | 26830 ft | 429 kts | 219° |
| 2026-04-29 13:42 | 9.39830 | 123.80881 | 27169 ft | 431 kts | 221° |
| 2026-04-29 13:43 | 9.37662 | 123.78726 | 27499 ft | 434 kts | 228° |
| 2026-04-29 13:43 | 9.35782 | 123.76291 | 27821 ft | 436 kts | 236° |
| 2026-04-29 13:43 | 9.34229 | 123.73657 | 28131 ft | 439 kts | 241° |
| 2026-04-29 13:43 | 9.32796 | 123.70911 | 28447 ft | 441 kts | 242° |
| 2026-04-29 13:44 | 9.31386 | 123.68144 | 28744 ft | 443 kts | 242° |
| 2026-04-29 13:44 | 9.29959 | 123.65346 | 29135 ft | 442 kts | 242° |
| 2026-04-29 13:44 | 9.28566 | 123.62629 | 29558 ft | 441 kts | 242° |
| 2026-04-29 13:44 | 9.27912 | 123.61359 | 29748 ft | 440 kts | 242° |
| 2026-04-29 13:45 | 9.26465 | 123.58553 | 30142 ft | 439 kts | 242° |
| 2026-04-29 13:45 | 9.25040 | 123.55798 | 30519 ft | 439 kts | 242° |
| 2026-04-29 13:45 | 9.23780 | 123.53366 | 30845 ft | 438 kts | 242° |
| 2026-04-29 13:45 | 9.22249 | 123.50414 | 31230 ft | 438 kts | 242° |
| 2026-04-29 13:46 | 9.20833 | 123.47683 | 31537 ft | 438 kts | 242° |
| 2026-04-29 13:46 | 9.19374 | 123.44870 | 31814 ft | 440 kts | 242° |
| 2026-04-29 13:46 | 9.17953 | 123.42130 | 32080 ft | 441 kts | 242° |
| 2026-04-29 13:46 | 9.16376 | 123.39414 | 32326 ft | 442 kts | 233° |
| 2026-04-29 13:47 | 9.14282 | 123.37138 | 32553 ft | 443 kts | 219° |
| 2026-04-29 13:47 | 9.11689 | 123.35419 | 32790 ft | 443 kts | 206° |
| 2026-04-29 13:47 | 9.08752 | 123.34364 | 32930 ft | 445 kts | 192° |
| 2026-04-29 13:47 | 9.05694 | 123.34051 | 32934 ft | 445 kts | 178° |
| 2026-04-29 13:48 | 9.02609 | 123.34491 | 32937 ft | 444 kts | 164° |
| 2026-04-29 13:48 | 8.99730 | 123.35592 | 32944 ft | 443 kts | 155° |
| 2026-04-29 13:48 | 8.94146 | 123.38246 | 32941 ft | 442 kts | 154° |
| 2026-04-29 13:49 | 8.88565 | 123.40914 | 32940 ft | 443 kts | 154° |
| 2026-04-29 13:49 | 8.83094 | 123.43496 | 32939 ft | 442 kts | 155° |
| 2026-04-29 13:50 | 8.77411 | 123.46160 | 32939 ft | 443 kts | 155° |
| 2026-04-29 13:50 | 8.71804 | 123.48783 | 32939 ft | 442 kts | 155° |
| 2026-04-29 13:51 | 8.66168 | 123.51417 | 32939 ft | 442 kts | 155° |
| 2026-04-29 13:51 | 8.60498 | 123.54064 | 32939 ft | 442 kts | 155° |
| 2026-04-29 13:52 | 8.54884 | 123.56686 | 32939 ft | 442 kts | 155° |
| 2026-04-29 13:52 | 8.49420 | 123.59235 | 32947 ft | 443 kts | 155° |
| 2026-04-29 13:53 | 8.43639 | 123.61933 | 32956 ft | 443 kts | 155° |
| 2026-04-29 13:53 | 8.38024 | 123.64552 | 32961 ft | 443 kts | 155° |
| 2026-04-29 13:54 | 8.33259 | 123.66773 | 32963 ft | 443 kts | 155° |
| 2026-04-29 13:54 | 8.27709 | 123.69360 | 32964 ft | 443 kts | 155° |
| 2026-04-29 13:55 | 8.22027 | 123.72008 | 32961 ft | 442 kts | 155° |
| 2026-04-29 13:55 | 8.16447 | 123.74607 | 32954 ft | 442 kts | 155° |
| 2026-04-29 13:56 | 8.10809 | 123.77232 | 32946 ft | 442 kts | 155° |
| 2026-04-29 13:56 | 8.05229 | 123.79830 | 32942 ft | 442 kts | 155° |
| 2026-04-29 13:57 | 7.99596 | 123.82452 | 32940 ft | 443 kts | 155° |
| 2026-04-29 13:57 | 7.94122 | 123.84999 | 32940 ft | 442 kts | 155° |
| 2026-04-29 13:58 | 7.88654 | 123.87542 | 32940 ft | 442 kts | 155° |
| 2026-04-29 13:58 | 7.82995 | 123.90173 | 32939 ft | 442 kts | 155° |
| 2026-04-29 13:59 | 7.77437 | 123.92757 | 32940 ft | 442 kts | 155° |
| 2026-04-29 13:59 | 7.72655 | 123.94979 | 32939 ft | 442 kts | 155° |
| 2026-04-29 14:00 | 7.66397 | 123.97887 | 32939 ft | 442 kts | 155° |
| 2026-04-29 14:00 | 7.60846 | 124.00465 | 32939 ft | 442 kts | 155° |
| 2026-04-29 14:01 | 7.55286 | 124.03046 | 32940 ft | 442 kts | 155° |
| 2026-04-29 14:01 | 7.49978 | 124.05510 | 32940 ft | 442 kts | 155° |
| 2026-04-29 14:02 | 7.44385 | 124.08106 | 32939 ft | 442 kts | 155° |
| 2026-04-29 14:02 | 7.38821 | 124.10686 | 32939 ft | 442 kts | 155° |
| 2026-04-29 14:03 | 7.33213 | 124.13287 | 32940 ft | 442 kts | 155° |
| 2026-04-29 14:03 | 7.27628 | 124.15877 | 32939 ft | 442 kts | 155° |
| 2026-04-29 14:04 | 7.22286 | 124.18359 | 32939 ft | 442 kts | 154° |
| 2026-04-29 14:04 | 7.17294 | 124.21068 | 32939 ft | 442 kts | 148° |
| 2026-04-29 14:05 | 7.14720 | 124.22741 | 32755 ft | 442 kts | 145° |
| 2026-04-29 14:05 | 7.12232 | 124.24572 | 32503 ft | 440 kts | 142° |
| 2026-04-29 14:05 | 7.09870 | 124.26466 | 32206 ft | 438 kts | 141° |
| 2026-04-29 14:05 | 7.07509 | 124.28386 | 31749 ft | 435 kts | 141° |
| 2026-04-29 14:06 | 7.05159 | 124.30297 | 31162 ft | 434 kts | 141° |
| 2026-04-29 14:06 | 7.02832 | 124.32188 | 30500 ft | 434 kts | 141° |
| 2026-04-29 14:06 | 7.00476 | 124.34100 | 29795 ft | 435 kts | 141° |
| 2026-04-29 14:06 | 6.98122 | 124.36009 | 29071 ft | 436 kts | 141° |
| 2026-04-29 14:07 | 6.95803 | 124.37890 | 28341 ft | 438 kts | 141° |
| 2026-04-29 14:07 | 6.93434 | 124.39809 | 27773 ft | 434 kts | 141° |
| 2026-04-29 14:07 | 6.91091 | 124.41707 | 27288 ft | 428 kts | 141° |
| 2026-04-29 14:07 | 6.88810 | 124.43553 | 26814 ft | 423 kts | 141° |
| 2026-04-29 14:08 | 6.86526 | 124.45403 | 26339 ft | 417 kts | 142° |
| 2026-04-29 14:08 | 6.84291 | 124.47212 | 25870 ft | 412 kts | 142° |
| 2026-04-29 14:08 | 6.82091 | 124.48992 | 25403 ft | 408 kts | 142° |
| 2026-04-29 14:08 | 6.79890 | 124.50774 | 24932 ft | 403 kts | 142° |
| 2026-04-29 14:09 | 6.77737 | 124.52516 | 24466 ft | 399 kts | 142° |
| 2026-04-29 14:09 | 6.75574 | 124.54266 | 23994 ft | 395 kts | 142° |
| 2026-04-29 14:09 | 6.73448 | 124.55986 | 23525 ft | 392 kts | 142° |
| 2026-04-29 14:09 | 6.71330 | 124.57699 | 23053 ft | 389 kts | 142° |
| 2026-04-29 14:10 | 6.69248 | 124.59383 | 22583 ft | 386 kts | 142° |
| 2026-04-29 14:10 | 6.67188 | 124.61048 | 22116 ft | 383 kts | 143° |
| 2026-04-29 14:10 | 6.65082 | 124.62698 | 21616 ft | 381 kts | 144° |
| 2026-04-29 14:10 | 6.62980 | 124.64288 | 21119 ft | 380 kts | 145° |
| 2026-04-29 14:11 | 6.60885 | 124.65865 | 20635 ft | 378 kts | 145° |
| 2026-04-29 14:11 | 6.58791 | 124.67444 | 20156 ft | 377 kts | 145° |
| 2026-04-29 14:11 | 6.56686 | 124.69035 | 19673 ft | 375 kts | 145° |
| 2026-04-29 14:11 | 6.54618 | 124.70601 | 19196 ft | 374 kts | 145° |
| 2026-04-29 14:12 | 6.52553 | 124.72166 | 18719 ft | 373 kts | 145° |
| 2026-04-29 14:12 | 6.50491 | 124.73729 | 18241 ft | 372 kts | 145° |
| 2026-04-29 14:12 | 6.48437 | 124.75286 | 17762 ft | 371 kts | 145° |
| 2026-04-29 14:12 | 6.46382 | 124.76844 | 17279 ft | 370 kts | 145° |
| 2026-04-29 14:13 | 6.44336 | 124.78396 | 16795 ft | 369 kts | 145° |
| 2026-04-29 14:13 | 6.42297 | 124.79941 | 16307 ft | 368 kts | 145° |
| 2026-04-29 14:13 | 6.40282 | 124.81516 | 15812 ft | 369 kts | 142° |
| 2026-04-29 14:13 | 6.38486 | 124.83240 | 15324 ft | 370 kts | 135° |
| 2026-04-29 14:14 | 6.36927 | 124.85140 | 14856 ft | 371 kts | 128° |
| 2026-04-29 14:14 | 6.35357 | 124.87363 | 14329 ft | 371 kts | 126° |
| 2026-04-29 14:14 | 6.33904 | 124.89492 | 13829 ft | 371 kts | 126° |
| 2026-04-29 14:14 | 6.32447 | 124.91623 | 13327 ft | 371 kts | 126° |
| 2026-04-29 14:15 | 6.30947 | 124.93763 | 12820 ft | 370 kts | 128° |
| 2026-04-29 14:15 | 6.29349 | 124.95781 | 12342 ft | 368 kts | 130° |
| 2026-04-29 14:15 | 6.27719 | 124.97727 | 11881 ft | 366 kts | 131° |
| 2026-04-29 14:15 | 6.26068 | 124.99684 | 11406 ft | 364 kts | 131° |
| 2026-04-29 14:16 | 6.24422 | 125.01634 | 10927 ft | 363 kts | 131° |
| 2026-04-29 14:16 | 6.22811 | 125.03546 | 10563 ft | 357 kts | 130° |
| 2026-04-29 14:16 | 6.21223 | 125.05434 | 10370 ft | 346 kts | 130° |
| 2026-04-29 14:16 | 6.19696 | 125.07252 | 10236 ft | 334 kts | 130° |
| 2026-04-29 14:17 | 6.18184 | 125.09051 | 10088 ft | 323 kts | 130° |
| 2026-04-29 14:17 | 6.16754 | 125.10753 | 9882 ft | 315 kts | 130° |
| 2026-04-29 14:17 | 6.15344 | 125.12430 | 9585 ft | 311 kts | 130° |
| 2026-04-29 14:17 | 6.13968 | 125.14066 | 9298 ft | 307 kts | 130° |
| 2026-04-29 14:18 | 6.12592 | 125.15703 | 8885 ft | 307 kts | 130° |
| 2026-04-29 14:18 | 6.11206 | 125.17292 | 8527 ft | 305 kts | 137° |
| 2026-04-29 14:18 | 6.09442 | 125.18404 | 8212 ft | 299 kts | 162° |
| 2026-04-29 14:18 | 6.07442 | 125.18796 | 7949 ft | 293 kts | 174° |
| 2026-04-29 14:19 | 6.05405 | 125.19014 | 7657 ft | 289 kts | 175° |
| 2026-04-29 14:19 | 6.03403 | 125.19215 | 7286 ft | 283 kts | 175° |
| 2026-04-29 14:19 | 6.01442 | 125.19426 | 6665 ft | 280 kts | 175° |
| 2026-04-29 14:19 | 5.99514 | 125.19647 | 6210 ft | 276 kts | 174° |
| 2026-04-29 14:20 | 5.97624 | 125.19873 | 5837 ft | 271 kts | 174° |
| 2026-04-29 14:20 | 5.95783 | 125.20096 | 5493 ft | 265 kts | 174° |
| 2026-04-29 14:20 | 5.93964 | 125.20318 | 5162 ft | 260 kts | 174° |
| 2026-04-29 14:20 | 5.92174 | 125.20538 | 4839 ft | 254 kts | 174° |
| 2026-04-29 14:21 | 5.90433 | 125.20534 | 4482 ft | 248 kts | 196° |
| 2026-04-29 14:21 | 5.88962 | 125.19762 | 4153 ft | 239 kts | 226° |
| 2026-04-29 14:21 | 5.88069 | 125.18414 | 4045 ft | 221 kts | 253° |
| 2026-04-29 14:21 | 5.87785 | 125.16970 | 4108 ft | 199 kts | 264° |
| 2026-04-29 14:22 | 5.87647 | 125.15643 | 4033 ft | 184 kts | 266° |
| 2026-04-29 14:22 | 5.87524 | 125.14398 | 3956 ft | 167 kts | 266° |
| 2026-04-29 14:22 | 5.87469 | 125.13292 | 3855 ft | 155 kts | 281° |
| 2026-04-29 14:22 | 5.87814 | 125.12418 | 3739 ft | 152 kts | 307° |
| 2026-04-29 14:23 | 5.88701 | 125.11724 | 3621 ft | 152 kts | 339° |
| 2026-04-29 14:23 | 5.89712 | 125.11514 | 3520 ft | 150 kts | 351° |
| 2026-04-29 14:23 | 5.90728 | 125.11409 | 3387 ft | 145 kts | 353° |
| 2026-04-29 14:23 | 5.91741 | 125.11311 | 3261 ft | 145 kts | 353° |
| 2026-04-29 14:24 | 5.92753 | 125.11205 | 2975 ft | 144 kts | 352° |
| 2026-04-29 14:24 | 5.93744 | 125.11094 | 2751 ft | 144 kts | 352° |
| 2026-04-29 14:24 | 5.94747 | 125.10977 | 2536 ft | 143 kts | 352° |
| 2026-04-29 14:24 | 5.95735 | 125.10859 | 2328 ft | 143 kts | 352° |
| 2026-04-29 14:25 | 5.96716 | 125.10741 | 2145 ft | 142 kts | 352° |
| 2026-04-29 14:25 | 5.97703 | 125.10620 | 1947 ft | 142 kts | 352° |
| 2026-04-29 14:25 | 5.98661 | 125.10503 | 1748 ft | 142 kts | 352° |
| 2026-04-29 14:25 | 5.99659 | 125.10379 | 1538 ft | 141 kts | 351° |
| 2026-04-29 14:26 | 6.00627 | 125.10259 | 1334 ft | 141 kts | 351° |
| 2026-04-29 14:26 | 6.01607 | 125.10138 | 1128 ft | 140 kts | 351° |
| 2026-04-29 14:26 | 6.02578 | 125.10019 | 943 ft | 141 kts | 350° |
| 2026-04-29 14:26 | 6.03545 | 125.09888 | 702 ft | 139 kts | 352° |
| 2026-04-29 14:27 | 6.04511 | 125.09776 | 531 ft | 138 kts | 350° |
| 2026-04-29 14:27 | 6.05385 | 125.09666 | 511 ft | 108 kts | 353° |
| 2026-04-29 14:27 | 6.05958 | 125.09598 | 511 ft | 58 kts | 353° |
| 2026-04-29 14:28 | 6.06257 | 125.09552 | 511 ft | 1 kts | 2° |
| 2026-04-29 14:28 | 6.06259 | 125.09560 | 511 ft | 1 kts | 115° |
| 2026-04-29 14:28 | 6.06209 | 125.09570 | 511 ft | 13 kts | 175° |
| 2026-04-29 14:28 | 6.06094 | 125.09583 | 511 ft | 17 kts | 172° |
| 2026-04-29 14:29 | 6.05960 | 125.09598 | 511 ft | 20 kts | 173° |
| 2026-04-29 14:29 | 6.05842 | 125.09620 | 511 ft | 11 kts | 145° |
| 2026-04-29 14:29 | 6.05827 | 125.09706 | 511 ft | 14 kts | 84° |
| 2026-04-29 14:29 | 6.05838 | 125.09821 | 511 ft | 14 kts | 93° |
| 2026-04-29 14:30 | 6.05789 | 125.09869 | 511 ft | 7 kts | 170° |
| 2026-04-29 14:30 | 6.05772 | 125.09906 | 511 ft | 7 kts | 90° |
| 2026-04-29 14:30 | 6.05774 | 125.09943 | 511 ft | 2 kts | 82° |
| 2026-04-29 14:30 | 6.05776 | 125.09958 | 511 ft | 0 kts | 83° |